Time,TemperatureF,DewpointF,PressureIn,WindDirection,WindDirectionDegrees,WindSpeedMPH,WindSpeedGustMPH,Humidity,HourlyPrecipIn,Conditions,Clouds,dailyrainin,SoftwareType,DateUTC
2014-01-07 00:12:00,-1.0,-6.0,30.60,West,280,0.0,-999.0,80,-99.99,,,-99.99,,2014-01-07 06:12:00,
2014-01-07 00:22:00,-1.0,-6.0,30.60,West,280,0.0,-999.0,80,-99.99,,,-99.99,,2014-01-07 06:22:00,
2014-01-07 00:43:00,-2.0,-6.0,30.59,West,280,0.0,-999.0,81,-99.99,,,-99.99,,2014-01-07 06:43:00,
2014-01-07 00:52:00,-2.0,-6.0,30.58,West,280,0.0,-999.0,81,-99.99,,,-99.99,,2014-01-07 06:52:00,
2014-01-07 01:11:00,-2.0,-6.0,30.57,West,280,0.0,-999.0,81,-99.99,,,-99.99,,2014-01-07 07:11:00,
2014-01-07 01:22:00,-2.0,-7.0,30.57,West,280,0.0,-999.0,80,-99.99,,,-99.99,,2014-01-07 07:22:00,
2014-01-07 01:42:00,-2.0,-6.0,30.56,West,280,0.0,-999.0,81,-99.99,,,-99.99,,2014-01-07 07:42:00,
2014-01-07 01:52:00,-2.0,-6.0,30.56,West,280,0.0,-999.0,81,-99.99,,,-99.99,,2014-01-07 07:52:00,
2014-01-07 02:22:00,-2.0,-6.0,30.57,West,280,0.0,-999.0,81,-99.99,,,-99.99,,2014-01-07 08:22:00,
2014-01-07 02:52:00,-2.0,-6.0,30.58,West,280,0.0,-999.0,81,-99.99,,,-99.99,,2014-01-07 08:52:00,
2014-01-07 03:21:00,-2.0,-6.0,30.57,West,280,0.0,-999.0,82,-99.99,,,-99.99,,2014-01-07 09:21:00,
2014-01-07 03:53:00,-2.0,-6.0,30.56,West,279,0.0,-999.0,82,-99.99,,,-99.99,,2014-01-07 09:53:00,
2014-01-07 04:23:00,-2.0,-6.0,30.56,West,279,0.0,-999.0,81,-99.99,,,-99.99,,2014-01-07 10:23:00,
2014-01-07 04:52:00,-2.0,-6.0,30.55,West,280,0.0,-999.0,83,-99.99,,,-99.99,,2014-01-07 10:52:00,
2014-01-07 05:22:00,-1.0,-5.0,30.54,West,279,0.0,-999.0,82,-99.99,,,-99.99,,2014-01-07 11:22:00,
2014-01-07 05:43:00,-1.0,-5.0,30.54,West,279,0.0,-999.0,81,-99.99,,,-99.99,,2014-01-07 11:43:00,
2014-01-07 05:53:00,-1.0,-5.0,30.53,West,280,0.0,-999.0,82,-99.99,,,-99.99,,2014-01-07 11:53:00,
2014-01-07 06:22:00,-1.0,-5.0,30.53,West,280,0.0,-999.0,82,-99.99,,,-99.99,,2014-01-07 12:22:00,
2014-01-07 06:43:00,-1.0,-5.0,30.53,West,280,0.0,-999.0,82,-99.99,,,-99.99,,2014-01-07 12:43:00,
2014-01-07 06:52:00,0.0,-4.0,30.53,West,280,0.0,-999.0,83,-99.99,,,-99.99,,2014-01-07 12:52:00,
2014-01-07 07:12:00,0.0,-4.0,30.53,West,280,0.0,-999.0,82,-99.99,,,-99.99,,2014-01-07 13:12:00,
2014-01-07 07:21:00,0.0,-4.0,30.52,West,279,0.0,-999.0,82,-99.99,,,-99.99,,2014-01-07 13:21:00,
2014-01-07 07:42:00,0.0,-4.0,30.51,West,279,0.0,-999.0,82,-99.99,,,-99.99,,2014-01-07 13:42:00,
2014-01-07 07:52:00,0.0,-4.0,30.52,West,279,0.0,-999.0,82,-99.99,,,-99.99,,2014-01-07 13:52:00,
2014-01-07 08:22:00,0.0,-4.0,30.52,West,279,0.0,-999.0,83,-99.99,,,-99.99,,2014-01-07 14:22:00,
2014-01-07 08:42:00,2.0,-1.0,30.52,West,279,0.0,-999.0,85,-99.99,,,-99.99,,2014-01-07 14:42:00,
2014-01-07 08:52:00,5.0,1.0,30.51,West,279,0.0,-999.0,84,-99.99,,,-99.99,,2014-01-07 14:52:00,
2014-01-07 09:22:00,10.0,5.0,30.50,West,279,0.0,-999.0,78,-99.99,,,-99.99,,2014-01-07 15:22:00,
2014-01-07 09:53:00,14.0,6.0,30.49,West,279,0.0,-999.0,70,-99.99,,,-99.99,,2014-01-07 15:53:00,
2014-01-07 10:23:00,19.0,7.0,30.49,WNW,286,0.0,-999.0,60,-99.99,,,-99.99,,2014-01-07 16:23:00,
2014-01-07 10:43:00,21.0,7.0,30.48,SSW,209,1.0,-999.0,54,-99.99,,,-99.99,,2014-01-07 16:43:00,
2014-01-07 10:53:00,23.0,8.0,30.47,NW,326,1.0,-999.0,52,-99.99,,,-99.99,,2014-01-07 16:53:00,
2014-01-07 11:23:00,26.0,10.0,30.46,SW,222,1.0,-999.0,50,-99.99,,,-99.99,,2014-01-07 17:23:00,
2014-01-07 11:42:00,27.0,10.0,30.43,SSW,201,1.0,-999.0,49,-99.99,,,-99.99,,2014-01-07 17:42:00,
2014-01-07 11:52:00,27.0,9.0,30.42,West,271,1.0,-999.0,47,-99.99,,,-99.99,,2014-01-07 17:52:00,
2014-01-07 12:22:00,29.0,12.0,30.39,East,92,1.0,-999.0,48,-99.99,,,-99.99,,2014-01-07 18:22:00,
2014-01-07 12:42:00,31.0,12.0,30.38,SSE,163,0.0,-999.0,45,-99.99,,,-99.99,,2014-01-07 18:42:00,
2014-01-07 12:52:00,32.0,14.0,30.37,East,86,1.0,-999.0,46,-99.99,,,-99.99,,2014-01-07 18:52:00,
2014-01-07 13:11:00,33.0,15.0,30.36,ESE,107,0.0,-999.0,46,-99.99,,,-99.99,,2014-01-07 19:11:00,
2014-01-07 13:22:00,33.0,15.0,30.36,ESE,107,0.0,-999.0,46,-99.99,,,-99.99,,2014-01-07 19:22:00,
2014-01-07 13:43:00,35.0,14.0,30.34,SSW,205,2.0,-999.0,42,-99.99,,,-99.99,,2014-01-07 19:43:00,
2014-01-07 13:53:00,36.0,14.0,30.33,WSW,252,3.0,-999.0,40,-99.99,,,-99.99,,2014-01-07 19:53:00,
2014-01-07 14:22:00,37.0,16.0,30.31,WSW,242,1.0,-999.0,41,-99.99,,,-99.99,,2014-01-07 20:22:00,
2014-01-07 14:42:00,37.0,16.0,30.31,West,275,1.0,-999.0,41,-99.99,,,-99.99,,2014-01-07 20:42:00,
2014-01-07 14:53:00,38.0,16.0,30.30,ESE,110,1.0,-999.0,40,-99.99,,,-99.99,,2014-01-07 20:53:00,
2014-01-07 15:22:00,38.0,16.0,30.29,SSW,200,1.0,-999.0,41,-99.99,,,-99.99,,2014-01-07 21:22:00,
2014-01-07 15:43:00,38.0,16.0,30.29,SE,145,1.0,-999.0,40,-99.99,,,-99.99,,2014-01-07 21:43:00,
2014-01-07 15:53:00,38.0,16.0,30.29,SE,129,0.0,-999.0,40,-99.99,,,-99.99,,2014-01-07 21:53:00,
2014-01-07 16:23:00,39.0,16.0,30.28,West,261,1.0,-999.0,38,-99.99,,,-99.99,,2014-01-07 22:23:00,
2014-01-07 16:43:00,39.0,16.0,30.28,SW,228,1.0,-999.0,39,-99.99,,,-99.99,,2014-01-07 22:43:00,
2014-01-07 16:53:00,38.0,15.0,30.28,WSW,238,1.0,-999.0,39,-99.99,,,-99.99,,2014-01-07 22:53:00,
2014-01-07 17:22:00,37.0,15.0,30.28,West,263,0.0,-999.0,40,-99.99,,,-99.99,,2014-01-07 23:22:00,
2014-01-07 17:43:00,37.0,16.0,30.28,West,273,1.0,-999.0,41,-99.99,,,-99.99,,2014-01-07 23:43:00,
2014-01-07 17:53:00,36.0,15.0,30.28,WNW,302,0.0,-999.0,42,-99.99,,,-99.99,,2014-01-07 23:53:00,
2014-01-07 18:11:00,35.0,15.0,30.29,West,281,0.0,-999.0,43,-99.99,,,-99.99,,2014-01-08 00:11:00,
2014-01-07 18:22:00,34.0,14.0,30.28,WSW,256,0.0,-999.0,43,-99.99,,,-99.99,,2014-01-08 00:22:00,
2014-01-07 18:42:00,34.0,14.0,30.28,South,182,0.0,-999.0,44,-99.99,,,-99.99,,2014-01-08 00:42:00,
2014-01-07 18:52:00,34.0,14.0,30.28,ESE,119,0.0,-999.0,44,-99.99,,,-99.99,,2014-01-08 00:52:00,
2014-01-07 19:11:00,33.0,15.0,30.28,NE,46,0.0,-999.0,47,-99.99,,,-99.99,,2014-01-08 01:11:00,
2014-01-07 19:22:00,33.0,15.0,30.28,NE,46,0.0,-999.0,48,-99.99,,,-99.99,,2014-01-08 01:22:00,
2014-01-07 19:42:00,32.0,15.0,30.28,NE,46,0.0,-999.0,48,-99.99,,,-99.99,,2014-01-08 01:42:00,
2014-01-07 19:52:00,33.0,15.0,30.28,WSW,249,0.0,-999.0,47,-99.99,,,-99.99,,2014-01-08 01:52:00,
2014-01-07 20:21:00,32.0,15.0,30.28,WSW,249,0.0,-999.0,49,-99.99,,,-99.99,,2014-01-08 02:21:00,
2014-01-07 20:52:00,31.0,17.0,30.28,WSW,249,0.0,-999.0,56,-99.99,,,-99.99,,2014-01-08 02:52:00,
2014-01-07 21:22:00,28.0,17.0,30.28,WSW,249,0.0,-999.0,64,-99.99,,,-99.99,,2014-01-08 03:22:00,